createdAt,value
2022-09-12T00:01:52.308Z,12.15
2022-09-12T00:04:19.129Z,12.09
2022-09-12T00:06:45.930Z,11.95
2022-09-12T00:09:13.640Z,11.89
2022-09-12T00:11:41.573Z,11.78
2022-09-12T00:14:09.273Z,11.74
2022-09-12T00:16:38.338Z,11.77
2022-09-12T00:19:05.806Z,11.74
2022-09-12T00:21:33.754Z,11.77
2022-09-12T00:24:00.876Z,11.77
2022-09-12T00:26:27.696Z,11.76
2022-09-12T00:28:54.525Z,11.78
2022-09-12T00:31:25.526Z,11.80
2022-09-12T00:33:52.965Z,11.79
2022-09-12T00:36:21.314Z,11.79
2022-09-12T00:38:48.684Z,11.80
2022-09-12T00:41:25.797Z,11.71
2022-09-12T00:44:11.400Z,11.68
2022-09-12T00:46:47.031Z,11.69
2022-09-12T00:49:15.649Z,11.68
2022-09-12T00:51:44.670Z,11.58
2022-09-12T00:54:15.228Z,11.55
2022-09-12T00:56:43.728Z,11.53
2022-09-12T00:59:17.197Z,11.52
2022-09-12T01:01:45.428Z,11.43
2022-09-12T01:04:12.612Z,11.39
2022-09-12T01:06:42.048Z,11.34
2022-09-12T01:09:11.852Z,11.32
2022-09-12T01:11:39.576Z,11.32
2022-09-12T01:14:06.993Z,11.30
2022-09-12T01:16:37.495Z,11.28
2022-09-12T01:19:22.910Z,11.28
2022-09-12T01:22:04.801Z,11.28
2022-09-12T01:24:42.485Z,11.22
2022-09-12T01:27:15.048Z,11.19
2022-09-12T01:29:44.918Z,11.14
2022-09-12T01:32:14.815Z,11.11
2022-09-12T01:34:44.367Z,11.08
2022-09-12T01:37:16.860Z,11.04
2022-09-12T01:39:51.094Z,10.99
2022-09-12T01:42:44.052Z,10.93
2022-09-12T01:45:21.474Z,10.83
2022-09-12T01:47:56.359Z,10.79
2022-09-12T01:50:27.784Z,10.75
2022-09-12T01:52:58.141Z,10.72
2022-09-12T01:55:27.506Z,10.69
2022-09-12T01:58:14.585Z,10.63
2022-09-12T02:00:49.469Z,10.58
2022-09-12T02:03:23.644Z,10.53
2022-09-12T02:05:56.351Z,10.45
2022-09-12T02:08:29.057Z,10.40
2022-09-12T02:11:09.937Z,10.38
2022-09-12T02:13:50.492Z,10.30
2022-09-12T02:16:36.577Z,10.26
2022-09-12T02:19:07.420Z,10.18
2022-09-12T02:21:36.085Z,10.13
2022-09-12T02:24:05.104Z,10.10
2022-09-12T02:26:39.667Z,10.08
2022-09-12T02:29:07.109Z,10.03
2022-09-12T02:31:40.390Z,9.94
2022-09-12T02:34:18.228Z,9.96
2022-09-12T02:36:57.348Z,9.93
2022-09-12T02:39:24.490Z,9.84
2022-09-12T02:41:51.588Z,9.85
2022-09-12T02:44:18.835Z,9.86
2022-09-12T02:46:51.600Z,9.84
2022-09-12T02:49:18.549Z,9.83
2022-09-12T02:51:46.607Z,9.84
2022-09-12T02:54:14.894Z,9.82
2022-09-12T02:56:42.896Z,9.80
2022-09-12T02:59:11.352Z,9.74
2022-09-12T03:01:50.370Z,9.78
2022-09-12T03:04:23.162Z,9.72
2022-09-12T03:07:08.716Z,9.65
2022-09-12T03:09:54.154Z,9.59
2022-09-12T03:12:23.777Z,9.53
2022-09-12T03:15:06.919Z,9.57
2022-09-12T03:17:42.336Z,9.54
2022-09-12T03:20:15.728Z,9.47
2022-09-12T03:22:59.425Z,9.45
2022-09-12T03:25:35.629Z,9.44
2022-09-12T03:28:07.647Z,9.43
2022-09-12T03:30:41.381Z,9.40
2022-09-12T03:33:11.184Z,9.40
2022-09-12T03:35:38.043Z,9.40
2022-09-12T03:38:04.976Z,9.35
2022-09-12T03:40:31.760Z,9.28
2022-09-12T03:42:58.574Z,9.26
2022-09-12T03:45:25.377Z,9.29
2022-09-12T03:47:52.163Z,9.29
2022-09-12T03:50:19.015Z,9.27
2022-09-12T03:52:45.866Z,9.30
2022-09-12T03:55:12.703Z,9.33
2022-09-12T03:57:39.495Z,9.32
2022-09-12T04:00:06.668Z,9.34
2022-09-12T04:02:39.295Z,9.34
2022-09-12T04:05:06.487Z,9.33
2022-09-12T04:07:33.317Z,9.30
2022-09-12T04:10:00.162Z,9.32
2022-09-12T04:12:26.967Z,9.33
2022-09-12T04:14:53.736Z,9.32
2022-09-12T04:17:20.506Z,9.33
2022-09-12T04:19:47.293Z,9.37
2022-09-12T04:22:14.122Z,9.38
2022-09-12T04:24:40.896Z,9.36
2022-09-12T04:27:07.992Z,9.35
2022-09-12T04:29:34.833Z,9.32
2022-09-12T04:32:01.706Z,9.32
2022-09-12T04:34:47.102Z,9.32
2022-09-12T04:37:13.886Z,9.30
2022-09-12T04:39:40.714Z,9.29
2022-09-12T04:42:07.609Z,9.22
2022-09-12T04:44:34.380Z,9.21
2022-09-12T04:47:01.180Z,9.13
2022-09-12T04:49:27.972Z,9.16
2022-09-12T04:51:54.792Z,9.07
2022-09-12T04:54:21.600Z,9.06
2022-09-12T04:56:49.162Z,9.09
2022-09-12T04:59:16.788Z,9.09
2022-09-12T05:01:43.926Z,9.09
2022-09-12T05:04:11.511Z,9.09
2022-09-12T05:06:38.937Z,9.06
2022-09-12T05:09:06.609Z,9.06
2022-09-12T05:12:03.312Z,9.03
2022-09-12T05:14:22.168Z,9.07
2022-09-12T05:16:49.735Z,9.09
2022-09-12T05:19:16.802Z,9.07
2022-09-12T05:21:43.660Z,9.06
2022-09-12T05:24:10.666Z,9.10
2022-09-12T05:26:37.451Z,9.17
2022-09-12T05:29:04.588Z,9.23
2022-09-12T05:31:31.404Z,9.29
2022-09-12T05:33:58.294Z,9.37
2022-09-12T05:36:26.289Z,9.45
2022-09-12T05:38:53.440Z,9.49
2022-09-12T05:41:24.848Z,9.61
2022-09-12T05:43:53.256Z,9.66
2022-09-12T05:46:21.976Z,9.75
2022-09-12T05:48:53.745Z,9.91
2022-09-12T05:51:24.115Z,10.02
2022-09-12T05:53:52.784Z,10.07
2022-09-12T05:56:20.886Z,10.15
2022-09-12T05:58:48.563Z,10.31
2022-09-12T06:01:17.031Z,10.31
2022-09-12T06:03:48.205Z,10.43
2022-09-12T06:06:15.678Z,10.44
2022-09-12T06:08:43.822Z,10.34
2022-09-12T06:11:12.516Z,10.35
2022-09-12T06:13:39.589Z,10.34
2022-09-12T06:16:07.225Z,10.41
2022-09-12T06:18:35.005Z,10.48
2022-09-12T06:21:02.826Z,10.69
2022-09-12T06:23:29.625Z,10.90
2022-09-12T06:25:56.443Z,10.97
2022-09-12T06:28:23.246Z,10.92
2022-09-12T06:30:50.255Z,11.10
2022-09-12T06:33:17.483Z,11.17
2022-09-12T06:35:44.302Z,11.29
2022-09-12T06:38:11.214Z,11.45
2022-09-12T06:40:41.804Z,11.49
2022-09-12T06:43:08.592Z,11.66
2022-09-12T06:45:36.198Z,11.77
2022-09-12T06:48:03.104Z,11.81
2022-09-12T06:50:29.902Z,11.91
2022-09-12T06:52:56.721Z,12.14
2022-09-12T06:55:27.154Z,12.41
2022-09-12T06:57:54.633Z,12.58
2022-09-12T07:00:21.420Z,12.60
2022-09-12T07:02:48.261Z,12.69
2022-09-12T07:05:15.060Z,12.74
2022-09-12T07:07:41.870Z,13.04
2022-09-12T07:10:08.735Z,13.18
2022-09-12T07:12:35.516Z,13.36
2022-09-12T07:15:02.306Z,13.47
2022-09-12T07:17:29.108Z,13.52
2022-09-12T07:19:55.907Z,13.60
2022-09-12T07:22:22.668Z,13.72
2022-09-12T07:24:49.437Z,13.69
2022-09-12T07:27:16.274Z,13.97
2022-09-12T07:29:43.073Z,14.12
2022-09-12T07:32:09.854Z,14.28
2022-09-12T07:34:36.691Z,14.38
2022-09-12T07:37:03.821Z,14.72
2022-09-12T07:39:30.612Z,14.67
2022-09-12T07:41:57.389Z,15.00
2022-09-12T07:44:24.804Z,15.25
2022-09-12T07:46:51.571Z,15.29
2022-09-12T07:49:18.352Z,15.27
2022-09-12T07:51:45.127Z,15.63
2022-09-12T07:54:11.934Z,15.78
2022-09-12T07:56:39.580Z,15.79
2022-09-12T07:59:07.021Z,15.97
2022-09-12T08:01:34.147Z,16.09
2022-09-12T08:04:01.091Z,16.18
2022-09-12T08:06:29.113Z,16.48
2022-09-12T08:08:56.699Z,16.76
2022-09-12T08:11:24.197Z,17.04
2022-09-12T08:13:55.075Z,17.20
2022-09-12T08:16:27.256Z,17.15
2022-09-12T08:18:54.183Z,17.49
2022-09-12T08:21:22.305Z,17.72
2022-09-12T08:23:56.133Z,17.92
2022-09-12T08:26:22.921Z,18.11
2022-09-12T08:28:49.819Z,18.39
2022-09-12T08:31:18.071Z,18.55
2022-09-12T08:33:44.906Z,18.74
2022-09-12T08:36:29.936Z,18.87
2022-09-12T08:39:00.793Z,19.23
2022-09-12T08:41:27.549Z,19.38
2022-09-12T08:44:03.665Z,19.59
2022-09-12T08:46:36.653Z,19.76
2022-09-12T08:49:05.140Z,19.97
2022-09-12T08:51:33.806Z,19.95
2022-09-12T08:54:01.949Z,20.14
2022-09-12T08:56:31.886Z,20.35
2022-09-12T08:58:58.699Z,20.46
2022-09-12T09:01:51.996Z,20.61
2022-09-12T09:04:37.742Z,20.84
2022-09-12T09:07:14.752Z,20.82
2022-09-12T09:10:04.891Z,20.92
2022-09-12T09:12:40.083Z,20.94
2022-09-12T09:15:14.676Z,21.15
2022-09-12T09:17:43.940Z,21.02
2022-09-12T09:20:15.890Z,21.02
2022-09-12T09:22:44.092Z,21.22
2022-09-12T09:25:16.640Z,21.20
2022-09-12T09:27:53.693Z,21.14
2022-09-12T09:30:20.825Z,20.91
2022-09-12T09:32:50.448Z,21.16
2022-09-12T09:35:26.148Z,21.10
2022-09-12T09:38:00.507Z,21.48
2022-09-12T09:40:34.271Z,21.65
2022-09-12T09:43:06.119Z,21.61
2022-09-12T09:45:32.930Z,21.81
2022-09-12T09:48:03.551Z,21.96
2022-09-12T09:50:30.343Z,22.02
2022-09-12T09:52:59.896Z,21.86
2022-09-12T09:55:30.758Z,22.25
2022-09-12T09:57:57.557Z,22.44
2022-09-12T10:00:42.490Z,22.41
2022-09-12T10:03:13.158Z,22.56
2022-09-12T10:05:51.254Z,22.89
2022-09-12T10:08:25.751Z,22.91
2022-09-12T10:10:56.840Z,22.96
2022-09-12T10:13:43.205Z,22.85
2022-09-12T10:16:21.230Z,23.06
2022-09-12T10:18:49.911Z,23.12
2022-09-12T10:21:22.240Z,23.13
2022-09-12T10:23:53.638Z,23.12
2022-09-12T10:26:20.553Z,23.05
2022-09-12T10:28:50.515Z,23.31
2022-09-12T10:31:23.693Z,23.51
2022-09-12T10:33:50.636Z,23.40
2022-09-12T10:36:17.449Z,23.50
2022-09-12T10:38:55.867Z,23.18
2022-09-12T10:41:23.263Z,22.62
2022-09-12T10:43:50.253Z,22.99
2022-09-12T10:46:17.038Z,23.21
2022-09-12T10:48:46.882Z,23.65
2022-09-12T10:51:27.257Z,23.85
2022-09-12T10:54:05.362Z,23.66
2022-09-12T10:56:33.478Z,23.73
2022-09-12T10:59:19.800Z,23.47
2022-09-12T11:01:49.167Z,23.61
2022-09-12T11:04:34.941Z,23.99
2022-09-12T11:07:16.716Z,24.15
2022-09-12T11:09:43.526Z,24.10
2022-09-12T11:12:19.612Z,24.26
2022-09-12T11:15:00.469Z,24.24
2022-09-12T11:17:27.249Z,23.99
2022-09-12T11:19:56.881Z,24.29
2022-09-12T11:22:46.663Z,24.12
2022-09-12T11:25:13.481Z,23.97
2022-09-12T11:28:03.305Z,24.00
2022-09-12T11:30:33.765Z,23.74
2022-09-12T11:33:03.649Z,24.15
2022-09-12T11:35:32.713Z,24.28
2022-09-12T11:37:59.497Z,24.63
2022-09-12T11:40:37.451Z,24.52
2022-09-12T11:43:12.437Z,24.42
2022-09-12T11:45:43.870Z,24.42
2022-09-12T11:48:13.610Z,24.12
2022-09-12T11:50:40.440Z,24.43
2022-09-12T11:53:19.325Z,24.65
2022-09-12T11:55:53.181Z,24.71
2022-09-12T11:58:22.128Z,24.54
2022-09-12T12:00:51.662Z,24.76
2022-09-12T12:03:33.018Z,24.70
2022-09-12T12:06:05.899Z,24.83
2022-09-12T12:08:37.740Z,24.48
2022-09-12T12:11:05.547Z,24.57
2022-09-12T12:13:38.435Z,24.34
2022-09-12T12:16:08.317Z,24.01
2022-09-12T12:18:39.050Z,24.03
2022-09-12T12:21:24.766Z,24.21
2022-09-12T12:24:09.587Z,24.45
2022-09-12T12:26:39.498Z,24.57
2022-09-12T12:29:12.332Z,24.64
2022-09-12T12:31:57.930Z,24.85
2022-09-12T12:34:34.885Z,25.12
2022-09-12T12:37:20.084Z,25.17
2022-09-12T12:39:46.935Z,25.13
2022-09-12T12:42:32.457Z,25.17
2022-09-12T12:44:59.986Z,25.40
2022-09-12T12:47:31.826Z,25.21
2022-09-12T12:50:05.472Z,25.05
2022-09-12T12:53:01.467Z,25.01
2022-09-12T12:55:31.125Z,25.27
2022-09-12T12:57:59.257Z,24.89
2022-09-12T13:00:26.048Z,24.86
2022-09-12T13:03:04.963Z,24.84
2022-09-12T13:05:52.523Z,25.01
2022-09-12T13:08:19.312Z,25.36
2022-09-12T13:11:04.851Z,25.35
2022-09-12T13:13:34.495Z,25.57
2022-09-12T13:16:04.472Z,25.61
2022-09-12T13:18:41.030Z,25.54
2022-09-12T13:21:09.632Z,25.66
2022-09-12T13:23:36.524Z,25.37
2022-09-12T13:26:04.387Z,25.38
2022-09-12T13:28:31.539Z,25.27
2022-09-12T13:31:17.166Z,25.54
2022-09-12T13:33:46.659Z,25.66
2022-09-12T13:36:25.507Z,25.77
2022-09-12T13:38:55.585Z,26.08
2022-09-12T13:41:22.365Z,25.98
2022-09-12T13:43:49.482Z,25.93
2022-09-12T13:46:20.434Z,25.68
2022-09-12T13:48:47.773Z,25.58
2022-09-12T13:51:23.808Z,25.62
2022-09-12T13:53:52.397Z,25.71
2022-09-12T13:56:20.258Z,25.50
2022-09-12T13:58:57.479Z,25.19
2022-09-12T14:01:25.361Z,25.45
2022-09-12T14:03:58.041Z,25.45
2022-09-12T14:06:25.737Z,25.15
2022-09-12T14:08:52.524Z,25.14
2022-09-12T14:11:30.329Z,25.26
2022-09-12T14:13:57.320Z,25.12
2022-09-12T14:16:24.521Z,25.17
2022-09-12T14:18:51.368Z,25.07
2022-09-12T14:21:33.532Z,24.92
2022-09-12T14:24:00.967Z,24.94
2022-09-12T14:26:33.762Z,25.02
2022-09-12T14:29:01.080Z,24.95
2022-09-12T14:31:31.881Z,24.74
2022-09-12T14:34:15.171Z,24.78
2022-09-12T14:36:45.405Z,24.81
2022-09-12T14:39:24.722Z,24.67
2022-09-12T14:42:00.155Z,24.61
2022-09-12T14:44:28.200Z,24.59
2022-09-12T14:47:10.441Z,24.54
2022-09-12T14:49:37.606Z,24.57
2022-09-12T14:52:05.887Z,24.35
2022-09-12T14:54:32.631Z,24.22
2022-09-12T14:56:59.392Z,24.14
2022-09-12T14:59:30.511Z,24.11
2022-09-12T15:02:15.984Z,24.09
2022-09-12T15:04:44.681Z,24.08
2022-09-12T15:07:15.714Z,24.06
2022-09-12T15:09:47.083Z,23.90
2022-09-12T15:12:14.202Z,23.88
2022-09-12T15:14:40.991Z,23.88
2022-09-12T15:17:07.799Z,24.01
2022-09-12T15:19:34.670Z,24.29
2022-09-12T15:22:01.514Z,24.62
2022-09-12T15:24:28.291Z,24.68
2022-09-12T15:26:55.093Z,24.60
2022-09-12T15:29:21.993Z,24.67
2022-09-12T15:31:50.824Z,24.64
2022-09-12T15:34:17.651Z,24.73
2022-09-12T15:36:44.436Z,24.32
2022-09-12T15:39:11.223Z,24.08
2022-09-12T15:41:38.275Z,23.58
2022-09-12T15:44:06.064Z,23.43
2022-09-12T15:46:32.887Z,22.75
2022-09-12T15:48:59.696Z,22.29
2022-09-12T15:51:26.506Z,21.87
2022-09-12T15:53:53.321Z,21.43
2022-09-12T15:56:20.714Z,20.84
2022-09-12T15:58:58.369Z,20.64
2022-09-12T16:01:26.342Z,20.47
2022-09-12T16:03:53.238Z,20.39
2022-09-12T16:06:20.062Z,20.23
2022-09-12T16:08:47.006Z,20.14
2022-09-12T16:11:19.322Z,19.92
2022-09-12T16:13:46.111Z,19.82
2022-09-12T16:16:12.986Z,19.65
2022-09-12T16:18:40.555Z,19.50
2022-09-12T16:21:10.174Z,19.40
2022-09-12T16:23:42.491Z,19.27
2022-09-12T16:26:09.266Z,19.06
2022-09-12T16:28:36.370Z,19.00
2022-09-12T16:31:04.462Z,18.82
2022-09-12T16:33:31.984Z,18.71
2022-09-12T16:36:02.179Z,18.67
2022-09-12T16:38:29.027Z,18.62
2022-09-12T16:41:02.579Z,18.62
2022-09-12T16:43:31.070Z,18.55
2022-09-12T16:46:01.895Z,18.49
2022-09-12T16:48:28.939Z,18.47
2022-09-12T16:50:56.514Z,18.40
2022-09-12T16:53:23.383Z,18.31
2022-09-12T16:55:50.617Z,18.32
2022-09-12T16:58:17.443Z,18.26
2022-09-12T17:00:44.263Z,18.19
2022-09-12T17:03:11.023Z,18.23
2022-09-12T17:05:37.865Z,18.16
2022-09-12T17:08:04.888Z,18.07
2022-09-12T17:10:31.708Z,17.94
2022-09-12T17:12:58.513Z,17.89
2022-09-12T17:15:25.308Z,17.83
2022-09-12T17:17:52.128Z,17.76
2022-09-12T17:20:18.906Z,17.73
2022-09-12T17:22:45.703Z,17.60
2022-09-12T17:25:12.499Z,17.49
2022-09-12T17:27:39.304Z,17.38
2022-09-12T17:30:06.478Z,17.32
2022-09-12T17:32:33.263Z,17.26
2022-09-12T17:35:00.050Z,17.22
2022-09-12T17:37:26.859Z,17.16
2022-09-12T17:39:53.752Z,17.14
2022-09-12T17:42:20.565Z,17.07
2022-09-12T17:44:47.358Z,16.97
2022-09-12T17:47:14.127Z,16.91
2022-09-12T17:49:41.002Z,16.83
2022-09-12T17:52:07.797Z,16.78
2022-09-12T17:54:34.595Z,16.76
2022-09-12T17:57:01.400Z,16.72
2022-09-12T17:59:28.174Z,16.67
2022-09-12T18:01:55.038Z,16.61
2022-09-12T18:04:21.969Z,16.58
2022-09-12T18:06:48.890Z,16.61
2022-09-12T18:09:17.781Z,16.59
2022-09-12T18:11:44.664Z,16.59
2022-09-12T18:14:14.226Z,16.59
2022-09-12T18:16:41.766Z,16.48
2022-09-12T18:19:08.667Z,16.49
2022-09-12T18:21:35.764Z,16.43
2022-09-12T18:24:03.001Z,16.36
2022-09-12T18:26:30.819Z,16.33
2022-09-12T18:28:58.017Z,16.21
2022-09-12T18:31:26.695Z,16.15
2022-09-12T18:33:53.625Z,16.12
2022-09-12T18:36:21.160Z,16.07
2022-09-12T18:38:47.979Z,16.04
2022-09-12T18:44:01.588Z,15.96
2022-09-12T18:46:29.815Z,15.91
2022-09-12T18:48:57.063Z,15.82
2022-09-12T18:51:25.246Z,15.76
2022-09-12T18:53:53.400Z,15.71
2022-09-12T18:56:20.846Z,15.67
2022-09-12T18:58:52.306Z,15.62
2022-09-12T19:01:20.529Z,15.57
2022-09-12T19:03:47.462Z,15.51
2022-09-12T19:06:25.542Z,15.46
2022-09-12T19:08:53.092Z,15.44
2022-09-12T19:11:36.365Z,15.39
2022-09-12T19:14:03.233Z,15.28
2022-09-12T19:16:31.159Z,15.23
2022-09-12T19:18:58.344Z,15.13
2022-09-12T19:21:26.694Z,15.11
2022-09-12T19:23:58.580Z,15.06
2022-09-12T19:26:25.822Z,14.98
2022-09-12T19:28:53.552Z,14.98
2022-09-12T19:31:20.669Z,14.97
2022-09-12T19:33:47.749Z,14.91
2022-09-12T19:36:34.145Z,14.86
2022-09-12T19:39:03.609Z,14.84
2022-09-12T19:41:30.880Z,14.80
2022-09-12T19:43:57.739Z,14.79
2022-09-12T19:46:26.139Z,14.77
2022-09-12T19:48:54.181Z,14.75
2022-09-12T19:51:22.376Z,14.73
2022-09-12T19:53:49.463Z,14.67
2022-09-12T19:56:16.353Z,14.63
2022-09-12T19:58:44.621Z,14.60
2022-09-12T20:01:19.263Z,14.52
2022-09-12T20:03:46.381Z,14.44
2022-09-12T20:06:14.800Z,14.40
2022-09-12T20:08:41.841Z,14.37
2022-09-12T20:11:09.080Z,14.29
2022-09-12T20:13:36.087Z,14.26
2022-09-12T20:16:06.874Z,14.22
2022-09-12T20:18:33.828Z,14.17
2022-09-12T20:21:07.465Z,14.12
2022-09-12T20:23:35.284Z,14.07
2022-09-12T20:26:02.119Z,14.07
2022-09-12T20:28:30.252Z,14.05
2022-09-12T20:31:01.013Z,13.98
2022-09-12T20:33:28.676Z,13.93
2022-09-12T20:36:00.703Z,13.88
2022-09-12T20:38:28.552Z,13.83
2022-09-12T20:40:55.411Z,13.80
2022-09-12T20:43:22.243Z,13.71
2022-09-12T20:45:50.102Z,13.66
2022-09-12T20:48:16.891Z,13.61
2022-09-12T20:50:43.689Z,13.61
2022-09-12T20:53:10.497Z,13.57
2022-09-12T20:55:37.341Z,13.57
2022-09-12T20:58:04.760Z,13.54
2022-09-12T21:00:31.589Z,13.48
2022-09-12T21:02:58.399Z,13.44
2022-09-12T21:05:25.232Z,13.38
2022-09-12T21:07:52.007Z,13.34
2022-09-12T21:10:18.798Z,13.21
2022-09-12T21:12:45.594Z,13.18
2022-09-12T21:15:12.424Z,13.12
2022-09-12T21:17:39.267Z,13.09
2022-09-12T21:20:11.151Z,13.07
2022-09-12T21:22:38.266Z,13.00
2022-09-12T21:25:05.412Z,12.99
2022-09-12T21:27:32.252Z,12.95
2022-09-12T21:29:59.077Z,12.96
2022-09-12T21:32:25.903Z,12.92
2022-09-12T21:34:52.689Z,12.88
2022-09-12T21:37:19.502Z,12.86
2022-09-12T21:39:46.336Z,12.81
2022-09-12T21:42:13.175Z,12.78
2022-09-12T21:44:40.009Z,12.72
2022-09-12T21:47:06.848Z,12.69
2022-09-12T21:49:33.733Z,12.61
2022-09-12T21:52:00.552Z,12.59
2022-09-12T21:54:27.477Z,12.57
2022-09-12T21:56:54.278Z,12.55
2022-09-12T21:59:21.287Z,12.49
2022-09-12T22:01:48.198Z,12.45
2022-09-12T22:04:15.043Z,12.41
2022-09-12T22:06:41.848Z,12.42
2022-09-12T22:09:08.745Z,12.40
2022-09-12T22:11:35.612Z,12.38
2022-09-12T22:14:02.455Z,12.38
2022-09-12T22:16:29.256Z,12.33
2022-09-12T22:18:56.046Z,12.31
2022-09-12T22:21:22.876Z,12.30
2022-09-12T22:23:49.961Z,12.25
2022-09-12T22:26:16.760Z,12.23
2022-09-12T22:28:43.830Z,12.18
2022-09-12T22:31:11.335Z,12.19
2022-09-12T22:33:38.823Z,12.14
2022-09-12T22:36:06.167Z,12.12
2022-09-12T22:38:33.237Z,12.10
2022-09-12T22:41:03.016Z,12.08
2022-09-12T22:43:29.895Z,12.05
2022-09-12T22:45:56.663Z,12.03
2022-09-12T22:48:23.473Z,12.02
2022-09-12T22:50:50.310Z,12.00
2022-09-12T22:53:17.098Z,12.01
2022-09-12T22:55:44.222Z,12.02
2022-09-12T22:58:11.080Z,12.01
2022-09-12T23:00:38.069Z,11.98
2022-09-12T23:03:04.918Z,11.96
2022-09-12T23:05:31.766Z,11.95
2022-09-12T23:07:58.531Z,11.91
2022-09-12T23:10:25.337Z,11.90
2022-09-12T23:12:52.192Z,11.87
2022-09-12T23:15:18.984Z,11.85
2022-09-12T23:17:45.810Z,11.85
2022-09-12T23:20:12.776Z,11.86
2022-09-12T23:22:39.557Z,11.87
2022-09-12T23:25:06.658Z,11.84
2022-09-12T23:27:33.553Z,11.85
2022-09-12T23:30:00.333Z,11.80
2022-09-12T23:32:27.544Z,11.75
2022-09-12T23:34:54.357Z,11.75
2022-09-12T23:37:21.134Z,11.73
2022-09-12T23:39:48.007Z,11.73
2022-09-12T23:42:14.938Z,11.70
2022-09-12T23:44:41.766Z,11.68
2022-09-12T23:47:08.654Z,11.67
2022-09-12T23:49:35.456Z,11.69
2022-09-12T23:52:02.388Z,11.70
2022-09-12T23:54:29.185Z,11.69
2022-09-12T23:56:56.149Z,11.69
2022-09-12T23:59:22.949Z,11.65
